createdAt,value
2017-06-26T00:00:31.742Z,994.96
2017-06-26T00:01:42.304Z,994.94
2017-06-26T00:02:52.654Z,994.98
2017-06-26T00:04:03.015Z,994.99
2017-06-26T00:05:13.372Z,994.99
2017-06-26T00:06:23.468Z,994.98
2017-06-26T00:07:33.821Z,994.98
2017-06-26T00:08:44.168Z,995
2017-06-26T00:09:54.556Z,995.03
2017-06-26T00:11:04.609Z,995.03
2017-06-26T00:12:14.962Z,995
2017-06-26T00:13:25.325Z,994.97
2017-06-26T00:14:35.359Z,995
2017-06-26T00:15:45.398Z,994.95
2017-06-26T00:16:55.433Z,994.95
2017-06-26T00:18:05.853Z,994.9
2017-06-26T00:19:15.572Z,994.98
2017-06-26T00:20:25.924Z,994.96
2017-06-26T00:21:36.277Z,994.99
2017-06-26T00:22:46.627Z,995.01
2017-06-26T00:23:57.013Z,995
2017-06-26T00:25:07.064Z,994.99
2017-06-26T00:26:16.788Z,994.99
2017-06-26T00:27:26.841Z,994.93
2017-06-26T00:28:37.200Z,994.95
2017-06-26T00:29:47.599Z,994.89
2017-06-26T00:30:57.628Z,994.87
2017-06-26T00:32:07.673Z,994.87
2017-06-26T00:33:17.384Z,994.94
2017-06-26T00:34:27.747Z,994.87
2017-06-26T00:35:38.147Z,994.9
2017-06-26T00:36:48.512Z,994.9
2017-06-26T00:37:58.862Z,994.92
2017-06-26T00:39:08.902Z,994.91
2017-06-26T00:40:19.252Z,994.95
2017-06-26T00:41:29.329Z,994.94
2017-06-26T00:42:39.391Z,994.91
2017-06-26T00:43:49.736Z,994.9
2017-06-26T00:45:00.080Z,994.94
2017-06-26T00:46:10.436Z,994.92
2017-06-26T00:47:20.526Z,994.91
2017-06-26T00:48:30.557Z,994.96
2017-06-26T00:49:40.915Z,994.94
2017-06-26T00:50:51.244Z,994.94
2017-06-26T00:52:01.281Z,994.9
2017-06-26T00:53:11.367Z,994.91
2017-06-26T00:54:21.399Z,994.9
2017-06-26T00:55:31.748Z,994.96
2017-06-26T00:56:41.776Z,994.9
2017-06-26T00:57:52.110Z,994.92
2017-06-26T00:59:01.866Z,994.97
2017-06-26T01:00:12.211Z,994.95
2017-06-26T01:01:22.578Z,994.91
2017-06-26T01:02:32.936Z,994.9
2017-06-26T01:03:42.658Z,994.92
2017-06-26T01:04:52.699Z,994.87
2017-06-26T01:06:03.054Z,994.91
2017-06-26T01:07:13.413Z,994.89
2017-06-26T01:08:23.764Z,994.91
2017-06-26T01:09:34.112Z,994.85
2017-06-26T01:10:44.455Z,994.84
2017-06-26T01:11:54.503Z,994.84
2017-06-26T01:13:04.846Z,994.85
2017-06-26T01:14:14.873Z,994.85
2017-06-26T01:15:24.912Z,994.82
2017-06-26T01:16:35.309Z,994.86
2017-06-26T01:17:45.668Z,994.8
2017-06-26T01:18:55.709Z,994.85
2017-06-26T01:20:06.048Z,994.84
2017-06-26T01:21:16.084Z,994.84
2017-06-26T01:22:26.472Z,994.84
2017-06-26T01:23:36.815Z,994.84
2017-06-26T01:24:47.149Z,994.8
2017-06-26T01:25:57.490Z,994.82
2017-06-26T01:27:07.857Z,994.8
2017-06-26T01:28:18.190Z,994.73
2017-06-26T01:29:28.216Z,994.76
2017-06-26T01:30:38.560Z,994.8
2017-06-26T01:31:48.921Z,994.74
2017-06-26T01:32:58.952Z,994.75
2017-06-26T01:34:09.346Z,994.73
2017-06-26T01:35:19.682Z,994.81
2017-06-26T01:36:30.033Z,994.82
2017-06-26T01:37:40.381Z,994.76
2017-06-26T01:38:50.417Z,994.73
2017-06-26T01:40:00.530Z,994.75
2017-06-26T01:41:10.867Z,994.7
2017-06-26T01:42:20.899Z,994.65
2017-06-26T01:43:30.937Z,994.58
2017-06-26T01:44:41.278Z,994.64
2017-06-26T01:45:51.622Z,994.6
2017-06-26T01:47:01.329Z,994.55
2017-06-26T01:48:11.704Z,994.59
2017-06-26T01:49:21.718Z,994.57
2017-06-26T01:50:32.057Z,994.56
2017-06-26T01:51:42.453Z,994.58
2017-06-26T01:52:52.818Z,994.62
2017-06-26T01:54:02.850Z,994.62
2017-06-26T01:55:12.576Z,994.58
2017-06-26T01:56:22.617Z,994.6
2017-06-26T01:57:33.013Z,994.58
2017-06-26T01:58:43.357Z,994.56
2017-06-26T01:59:53.713Z,994.57
2017-06-26T02:01:04.072Z,994.57
2017-06-26T02:02:14.407Z,994.57
2017-06-26T02:03:25.049Z,994.56
2017-06-26T02:04:35.384Z,994.59
2017-06-26T02:05:45.735Z,994.6
2017-06-26T02:06:56.074Z,994.53
2017-06-26T02:08:06.421Z,994.59
2017-06-26T02:09:16.811Z,994.64
2017-06-26T02:10:27.160Z,994.57
2017-06-26T02:11:37.497Z,994.6
2017-06-26T02:12:47.849Z,994.6
2017-06-26T02:13:57.884Z,994.56
2017-06-26T02:15:08.132Z,994.52
2017-06-26T02:16:18.478Z,994.56
2017-06-26T02:17:28.515Z,994.55
2017-06-26T02:18:38.261Z,994.51
2017-06-26T02:19:48.612Z,994.56
2017-06-26T02:20:58.697Z,994.58
2017-06-26T02:22:08.426Z,994.59
2017-06-26T02:23:18.773Z,994.57
2017-06-26T02:24:29.119Z,994.56
2017-06-26T02:25:39.466Z,994.59
2017-06-26T02:26:49.224Z,994.55
2017-06-26T02:27:59.252Z,994.58
2017-06-26T02:29:09.597Z,994.53
2017-06-26T02:30:19.320Z,994.56
2017-06-26T02:31:29.357Z,994.53
2017-06-26T02:32:39.776Z,994.5
2017-06-26T02:33:50.115Z,994.48
2017-06-26T02:34:59.846Z,994.48
2017-06-26T02:36:09.889Z,994.49
2017-06-26T02:37:19.917Z,994.43
2017-06-26T02:38:30.004Z,994.49
2017-06-26T02:39:40.343Z,994.49
2017-06-26T02:40:50.375Z,994.54
2017-06-26T02:42:00.406Z,994.56
2017-06-26T02:43:10.737Z,994.53
2017-06-26T02:44:20.469Z,994.53
2017-06-26T02:45:30.822Z,994.52
2017-06-26T02:46:40.855Z,994.53
2017-06-26T02:47:51.211Z,994.49
2017-06-26T02:49:01.232Z,994.49
2017-06-26T02:50:11.582Z,994.54
2017-06-26T02:51:21.925Z,994.56
2017-06-26T02:52:31.948Z,994.57
2017-06-26T02:53:42.293Z,994.55
2017-06-26T02:54:52.624Z,994.61
2017-06-26T02:56:03.027Z,994.6
2017-06-26T02:57:13.371Z,994.61
2017-06-26T02:58:23.726Z,994.61
2017-06-26T02:59:34.065Z,994.6
2017-06-26T03:00:44.462Z,994.59
2017-06-26T03:33:10.768Z,994.59
2017-06-26T03:34:20.783Z,994.61
2017-06-26T03:35:31.140Z,994.62
2017-06-26T03:36:41.470Z,994.64
2017-06-26T03:37:51.492Z,994.66
2017-06-26T03:39:01.569Z,994.63
2017-06-26T03:40:11.900Z,994.63
2017-06-26T03:41:21.918Z,994.68
2017-06-26T03:42:31.955Z,994.68
2017-06-26T03:43:41.999Z,994.69
2017-06-26T03:44:52.396Z,994.72
2017-06-26T03:46:02.735Z,994.7
2017-06-26T03:47:12.445Z,994.74
2017-06-26T03:48:22.773Z,994.74
2017-06-26T03:49:33.119Z,994.75
2017-06-26T03:50:43.514Z,994.77
2017-06-26T03:51:53.863Z,994.74
2017-06-26T03:53:03.569Z,994.78
2017-06-26T03:54:13.605Z,994.78
2017-06-26T03:55:23.957Z,994.8
2017-06-26T03:56:34.315Z,994.87
2017-06-26T03:57:44.659Z,994.88
2017-06-26T03:58:55.004Z,994.87
2017-06-26T04:00:05.044Z,994.88
2017-06-26T04:01:15.067Z,994.86
2017-06-26T04:02:25.471Z,994.89
2017-06-26T04:03:35.499Z,994.88
2017-06-26T04:04:45.843Z,994.92
2017-06-26T04:05:55.566Z,994.96
2017-06-26T04:07:05.925Z,994.93
2017-06-26T04:08:16.319Z,994.96
2017-06-26T04:09:26.661Z,994.95
2017-06-26T04:10:37.038Z,994.95
2017-06-26T04:11:46.762Z,994.99
2017-06-26T04:12:56.781Z,995.02
2017-06-26T04:14:07.183Z,995
2017-06-26T04:15:17.519Z,995.04
2017-06-26T04:16:27.880Z,995.07
2017-06-26T04:17:38.222Z,995.08
2017-06-26T04:18:48.259Z,995.07
2017-06-26T04:19:58.613Z,995.08
2017-06-26T04:21:08.956Z,995.06
2017-06-26T04:22:18.993Z,995.13
2017-06-26T04:23:29.026Z,995.14
2017-06-26T04:24:38.741Z,995.12
2017-06-26T04:25:49.128Z,995.1
2017-06-26T04:26:59.466Z,995.15
2017-06-26T04:28:09.812Z,995.16
2017-06-26T04:29:20.149Z,995.15
2017-06-26T04:30:30.491Z,995.17
2017-06-26T04:31:40.520Z,995.36
2017-06-26T04:32:50.871Z,995.79
2017-06-26T04:34:01.222Z,995.78
2017-06-26T04:35:11.566Z,995.73
2017-06-26T04:36:21.621Z,995.92
2017-06-26T04:37:31.710Z,995.97
2017-06-26T04:38:42.072Z,996.02
2017-06-26T04:39:52.117Z,995.66
2017-06-26T04:41:02.142Z,995.88
2017-06-26T04:42:12.481Z,995.87
2017-06-26T04:43:22.872Z,995.79
2017-06-26T04:44:32.900Z,995.71
2017-06-26T04:45:42.946Z,995.64
2017-06-26T04:46:53.316Z,995.61
2017-06-26T04:48:03.649Z,995.6
2017-06-26T04:49:13.997Z,995.61
2017-06-26T04:50:24.348Z,995.62
2017-06-26T04:51:34.691Z,995.65
2017-06-26T04:52:45.029Z,995.66
2017-06-26T04:53:55.060Z,995.61
2017-06-26T04:55:05.467Z,995.62
2017-06-26T04:56:15.819Z,995.68
2017-06-26T04:57:26.176Z,995.77
2017-06-26T04:58:35.913Z,995.73
2017-06-26T04:59:45.954Z,995.76
2017-06-26T05:00:56.296Z,995.72
2017-06-26T05:02:06.640Z,995.7
2017-06-26T05:03:16.685Z,995.79
2017-06-26T05:04:27.037Z,995.77
2017-06-26T05:05:37.394Z,995.81
2017-06-26T05:06:47.794Z,995.93
2017-06-26T05:07:58.161Z,996
2017-06-26T05:09:08.515Z,995.97
2017-06-26T05:10:18.885Z,995.94
2017-06-26T05:11:29.238Z,995.92
2017-06-26T05:12:39.016Z,995.9
2017-06-26T05:13:49.365Z,995.87
2017-06-26T05:14:59.727Z,995.85
2017-06-26T05:16:10.075Z,995.5
2017-06-26T05:17:20.416Z,995.42
2017-06-26T05:18:30.520Z,995.49
2017-06-26T05:19:40.885Z,995.84
2017-06-26T05:20:50.936Z,995.51
2017-06-26T05:22:01.297Z,995.51
2017-06-26T05:23:11.359Z,995.64
2017-06-26T05:24:21.609Z,995.59
2017-06-26T05:25:31.967Z,995.54
2017-06-26T05:26:42.331Z,995.58
2017-06-26T05:27:52.373Z,995.61
2017-06-26T05:29:02.718Z,995.65
2017-06-26T05:30:13.113Z,995.72
2017-06-26T05:31:23.470Z,995.69
2017-06-26T05:32:33.208Z,995.58
2017-06-26T05:33:43.555Z,996.03
2017-06-26T05:34:53.582Z,995.99
2017-06-26T05:36:04.009Z,995.99
2017-06-26T05:37:14.342Z,995.94
2017-06-26T05:38:24.062Z,996.02
2017-06-26T05:39:34.427Z,996.02
2017-06-26T05:40:44.767Z,996.06
2017-06-26T05:41:55.171Z,996.11
2017-06-26T05:43:05.520Z,996.17
2017-06-26T05:44:15.874Z,996.11
2017-06-26T05:45:26.237Z,996.16
2017-06-26T05:46:36.285Z,996.12
2017-06-26T05:47:46.377Z,996.13
2017-06-26T05:48:56.728Z,996.12
2017-06-26T05:50:06.812Z,995.78
2017-06-26T05:51:17.162Z,995.82
2017-06-26T05:52:27.500Z,995.81
2017-06-26T05:53:37.531Z,995.87
2017-06-26T05:54:47.566Z,995.88
2017-06-26T05:55:57.610Z,995.87
2017-06-26T05:57:07.967Z,995.91
2017-06-26T05:58:18.323Z,995.93
2017-06-26T05:59:28.401Z,995.87
2017-06-26T06:00:38.751Z,995.93
2017-06-26T06:01:48.796Z,995.85
2017-06-26T06:02:59.135Z,995.83
2017-06-26T06:04:09.167Z,995.85
2017-06-26T06:05:19.196Z,995.89
2017-06-26T06:06:29.547Z,995.88
2017-06-26T06:07:39.277Z,995.97
2017-06-26T06:08:49.316Z,995.93
2017-06-26T06:09:59.660Z,995.95
2017-06-26T06:11:09.747Z,995.94
2017-06-26T06:12:19.154Z,995.94
2017-06-26T06:13:29.494Z,995.93
2017-06-26T06:14:39.837Z,995.98
2017-06-26T06:15:49.873Z,995.99
2017-06-26T06:17:00.271Z,996
2017-06-26T06:18:10.629Z,995.98
2017-06-26T06:19:20.991Z,996.01
2017-06-26T06:20:31.347Z,996.01
2017-06-26T06:21:41.405Z,996
2017-06-26T06:22:51.825Z,996.01
2017-06-26T06:24:01.882Z,995.99
2017-06-26T06:25:12.236Z,995.98
2017-06-26T06:26:22.616Z,996.02
2017-06-26T06:27:32.967Z,995.99
2017-06-26T06:28:43.359Z,995.99
2017-06-26T06:29:53.076Z,996.01
2017-06-26T06:31:03.429Z,995.96
2017-06-26T06:32:13.775Z,995.96
2017-06-26T06:33:24.135Z,995.97
2017-06-26T06:34:34.214Z,995.93
2017-06-26T06:35:44.592Z,995.95
2017-06-26T06:36:54.950Z,995.96
2017-06-26T06:38:05.292Z,996.1
2017-06-26T06:39:15.351Z,995.94
2017-06-26T06:40:25.446Z,996.26
2017-06-26T06:41:35.823Z,996.13
2017-06-26T06:42:46.179Z,995.99
2017-06-26T06:43:56.527Z,995.95
2017-06-26T06:45:06.889Z,996.13
2017-06-26T06:46:16.662Z,995.98
2017-06-26T06:47:26.704Z,996.11
2017-06-26T06:48:37.064Z,996.11
2017-06-26T06:49:47.429Z,996.02
2017-06-26T06:50:57.738Z,996.11
2017-06-26T06:52:07.824Z,996.06
2017-06-26T06:53:17.859Z,995.96
2017-06-26T06:54:27.909Z,995.92
2017-06-26T06:55:38.259Z,995.96
2017-06-26T06:56:48.291Z,995.89
2017-06-26T06:57:58.384Z,995.99
2017-06-26T06:59:08.763Z,995.98
2017-06-26T07:00:18.787Z,995.91
2017-06-26T07:01:29.158Z,995.85
2017-06-26T07:02:39.194Z,995.82
2017-06-26T07:03:49.280Z,995.77
2017-06-26T07:04:59.858Z,995.81
2017-06-26T07:06:09.925Z,995.8
2017-06-26T07:07:20.285Z,995.84
2017-06-26T07:08:30.334Z,995.77
2017-06-26T07:09:40.773Z,995.76
2017-06-26T07:10:51.322Z,995.8
2017-06-26T07:12:01.431Z,995.74
2017-06-26T07:13:11.788Z,995.69
2017-06-26T07:14:22.136Z,995.75
2017-06-26T07:15:32.168Z,995.77
2017-06-26T07:16:42.523Z,995.71
2017-06-26T07:17:52.867Z,995.7
2017-06-26T07:19:02.905Z,995.67
2017-06-26T07:20:12.952Z,995.71
2017-06-26T07:21:23.012Z,995.75
2017-06-26T07:22:33.050Z,995.73
2017-06-26T07:23:43.469Z,995.72
2017-06-26T07:24:53.548Z,995.8
2017-06-26T07:26:03.275Z,995.73
2017-06-26T07:27:13.682Z,995.79
2017-06-26T07:28:23.721Z,995.76
2017-06-26T07:29:34.080Z,995.74
2017-06-26T07:30:44.447Z,995.73
2017-06-26T07:31:54.809Z,995.72
2017-06-26T07:33:04.916Z,995.73
2017-06-26T07:34:15.277Z,995.69
2017-06-26T07:35:25.620Z,995.68
2017-06-26T07:36:36.001Z,995.73
2017-06-26T07:37:46.349Z,995.68
2017-06-26T07:38:56.760Z,995.66
2017-06-26T07:40:06.492Z,995.66
2017-06-26T07:41:16.860Z,995.68
2017-06-26T07:42:27.226Z,995.66
2017-06-26T07:43:37.457Z,995.66
2017-06-26T07:44:49.433Z,995.75
2017-06-26T07:45:59.841Z,995.66
2017-06-26T07:47:10.237Z,995.62
2017-06-26T07:48:20.607Z,995.64
2017-06-26T07:49:30.688Z,995.65
2017-06-26T07:50:40.809Z,995.65
2017-06-26T07:51:51.193Z,995.71
2017-06-26T07:53:00.930Z,995.75
2017-06-26T07:54:11.300Z,995.76
2017-06-26T07:55:21.650Z,995.71
2017-06-26T07:56:31.762Z,995.66
2017-06-26T07:57:42.094Z,995.71
2017-06-26T07:58:51.830Z,995.7
2017-06-26T08:00:02.180Z,995.72
2017-06-26T08:01:12.526Z,995.73
2017-06-26T08:02:22.937Z,995.73
2017-06-26T08:03:33.323Z,995.71
2017-06-26T08:04:43.696Z,995.73
2017-06-26T08:05:54.043Z,995.71
2017-06-26T08:07:04.087Z,995.65
2017-06-26T08:08:14.486Z,995.67
2017-06-26T08:09:24.833Z,995.67
2017-06-26T08:10:35.187Z,995.75
2017-06-26T08:11:45.227Z,995.76
2017-06-26T08:12:55.265Z,995.7
2017-06-26T08:14:05.684Z,995.75
2017-06-26T08:15:15.725Z,995.71
2017-06-26T08:16:26.094Z,995.68
2017-06-26T08:17:36.443Z,995.67
2017-06-26T08:18:46.787Z,995.67
2017-06-26T08:19:56.886Z,995.68
2017-06-26T08:21:07.261Z,995.68
2017-06-26T08:22:17.648Z,995.64
2017-06-26T08:23:28.197Z,995.7
2017-06-26T08:24:38.264Z,995.71
2017-06-26T08:25:48.603Z,995.75
2017-06-26T08:26:58.942Z,995.77
2017-06-26T08:28:09.298Z,995.68
2017-06-26T08:29:19.666Z,995.68
2017-06-26T08:30:30.024Z,995.74
2017-06-26T08:31:40.423Z,995.72
2017-06-26T08:32:50.473Z,995.8
2017-06-26T08:34:00.530Z,995.64
2017-06-26T08:35:10.893Z,995.68
2017-06-26T08:36:21.263Z,995.68
2017-06-26T08:37:31.675Z,995.7
2017-06-26T08:38:42.054Z,995.71
2017-06-26T08:39:52.092Z,995.73
2017-06-26T08:41:02.459Z,995.74
2017-06-26T08:42:12.510Z,995.76
2017-06-26T08:43:22.909Z,995.77
2017-06-26T08:44:32.952Z,995.82
2017-06-26T08:45:43.014Z,995.79
2017-06-26T08:46:53.060Z,995.68
2017-06-26T08:48:03.426Z,995.79
2017-06-26T08:49:13.517Z,995.75
2017-06-26T08:50:23.885Z,995.73
2017-06-26T08:51:34.280Z,995.75
2017-06-26T08:52:44.637Z,995.76
2017-06-26T08:53:54.690Z,995.76
2017-06-26T08:55:05.114Z,995.7
2017-06-26T08:56:14.845Z,995.71
2017-06-26T08:57:24.889Z,995.7
2017-06-26T08:58:35.258Z,995.68
2017-06-26T08:59:45.625Z,995.72
2017-06-26T09:00:56.025Z,995.64
2017-06-26T09:02:06.398Z,995.58
2017-06-26T09:03:16.454Z,995.68
2017-06-26T09:04:26.496Z,995.67
2017-06-26T09:05:36.542Z,995.78
2017-06-26T09:06:46.890Z,995.7
2017-06-26T09:07:57.244Z,995.69
2017-06-26T09:09:07.287Z,995.7
2017-06-26T09:10:17.331Z,995.65
2017-06-26T09:11:27.685Z,995.63
2017-06-26T09:12:38.114Z,995.6
2017-06-26T09:13:48.164Z,995.62
2017-06-26T09:14:58.528Z,995.6
2017-06-26T09:16:08.893Z,995.61
2017-06-26T09:17:19.255Z,995.59
2017-06-26T09:18:29.676Z,995.62
2017-06-26T09:19:40.033Z,995.61
2017-06-26T09:20:50.402Z,995.63
2017-06-26T09:22:00.761Z,995.61
2017-06-26T09:23:11.319Z,995.62
2017-06-26T09:24:21.103Z,995.63
2017-06-26T09:25:31.475Z,995.65
2017-06-26T09:26:41.516Z,995.65
2017-06-26T09:27:51.859Z,995.69
2017-06-26T09:29:02.212Z,995.73
2017-06-26T09:30:12.314Z,995.69
2017-06-26T09:31:22.670Z,995.73
2017-06-26T09:32:33.014Z,995.72
2017-06-26T09:33:43.373Z,995.72
2017-06-26T09:34:53.749Z,995.71
2017-06-26T09:36:04.163Z,995.69
2017-06-26T09:37:14.506Z,995.75
2017-06-26T09:38:24.221Z,995.72
2017-06-26T09:39:34.278Z,995.75
2017-06-26T09:40:44.325Z,995.78
2017-06-26T09:41:54.735Z,995.78
2017-06-26T09:43:05.100Z,995.73
2017-06-26T09:44:15.132Z,995.73
2017-06-26T09:45:25.172Z,995.73
2017-06-26T09:46:35.527Z,995.75
2017-06-26T09:47:45.931Z,995.65
2017-06-26T09:48:56.299Z,995.64
2017-06-26T09:50:06.644Z,995.7
2017-06-26T09:51:17.000Z,995.64
2017-06-26T09:52:27.361Z,995.66
2017-06-26T09:53:37.747Z,995.61
2017-06-26T09:54:48.141Z,995.58
2017-06-26T09:55:58.199Z,995.6
2017-06-26T09:57:08.236Z,995.52
2017-06-26T09:58:18.571Z,995.51
2017-06-26T09:59:28.344Z,995.61
2017-06-26T10:00:38.391Z,995.59
2017-06-26T10:01:48.736Z,995.56
2017-06-26T10:02:58.787Z,995.57
2017-06-26T10:04:09.164Z,995.55
2017-06-26T10:05:19.581Z,995.56
2017-06-26T10:06:29.957Z,995.54
2017-06-26T10:07:40.004Z,995.58
2017-06-26T10:08:50.386Z,995.6
2017-06-26T10:10:00.762Z,995.58
2017-06-26T10:11:11.196Z,995.59
2017-06-26T10:12:21.229Z,995.61
2017-06-26T10:13:31.279Z,995.61
2017-06-26T10:14:41.629Z,995.6
2017-06-26T10:15:51.678Z,995.67
2017-06-26T10:17:02.108Z,995.72
2017-06-26T10:18:12.466Z,995.66
2017-06-26T10:19:22.538Z,995.73
2017-06-26T10:20:32.898Z,995.69
2017-06-26T10:21:43.244Z,995.58
2017-06-26T10:22:53.667Z,995.58
2017-06-26T10:24:03.717Z,995.54
2017-06-26T10:25:14.079Z,995.55
2017-06-26T10:26:23.802Z,995.48
2017-06-26T10:27:34.169Z,995.51
2017-06-26T10:28:44.537Z,995.47
2017-06-26T10:29:54.903Z,995.56
2017-06-26T10:31:04.956Z,995.59
2017-06-26T10:32:15.371Z,995.6
2017-06-26T10:33:25.721Z,995.64
2017-06-26T10:34:35.772Z,995.55
2017-06-26T10:35:46.136Z,995.56
2017-06-26T10:36:56.481Z,995.56
2017-06-26T10:38:06.906Z,995.66
2017-06-26T10:39:16.954Z,995.53
2017-06-26T10:40:27.305Z,995.5
2017-06-26T10:41:37.346Z,995.56
2017-06-26T10:42:46.770Z,995.53
2017-06-26T10:43:56.854Z,995.55
2017-06-26T10:45:07.210Z,995.5
2017-06-26T10:46:17.249Z,995.43
2017-06-26T10:47:27.609Z,995.51
2017-06-26T10:48:37.965Z,995.52
2017-06-26T10:49:48.375Z,995.51
2017-06-26T10:50:57.807Z,995.46
2017-06-26T10:52:08.154Z,995.41
2017-06-26T10:53:18.513Z,995.4
2017-06-26T10:54:28.889Z,995.41
2017-06-26T10:55:38.674Z,995.42
2017-06-26T10:56:48.719Z,995.27
2017-06-26T10:57:59.093Z,995.25
2017-06-26T10:59:09.461Z,995.36
2017-06-26T11:00:19.830Z,995.27
2017-06-26T11:01:29.949Z,995.3
2017-06-26T11:02:40.308Z,995.41
2017-06-26T11:03:50.666Z,995.38
2017-06-26T11:05:01.019Z,995.3
2017-06-26T11:06:11.375Z,995.24
2017-06-26T11:07:21.789Z,995.22
2017-06-26T11:08:32.164Z,995.22
2017-06-26T11:09:42.203Z,995.25
2017-06-26T11:10:52.254Z,995.36
2017-06-26T11:12:02.286Z,995.32
2017-06-26T11:13:12.685Z,995.29
2017-06-26T11:14:22.404Z,995.26
2017-06-26T11:15:32.454Z,995.2
2017-06-26T11:16:42.815Z,995.18
2017-06-26T11:17:53.194Z,995.17
2017-06-26T11:19:03.554Z,995.14
2017-06-26T11:20:13.591Z,995.16
2017-06-26T11:21:23.954Z,995.12
2017-06-26T11:22:33.999Z,995.19
2017-06-26T11:23:44.041Z,995.13
2017-06-26T11:24:54.461Z,995.01
2017-06-26T11:26:04.814Z,995.03
2017-06-26T11:27:14.866Z,995.02
2017-06-26T11:28:25.222Z,995.18
2017-06-26T11:29:35.607Z,995.16
2017-06-26T11:30:46.007Z,995.18
2017-06-26T11:31:56.366Z,995.17
2017-06-26T11:33:06.735Z,995.22
2017-06-26T11:34:17.099Z,995.18
2017-06-26T11:35:27.443Z,995.05
2017-06-26T11:36:37.833Z,995.14
2017-06-26T11:37:48.191Z,995.05
2017-06-26T11:38:58.234Z,995.06
2017-06-26T11:40:08.309Z,995.06
2017-06-26T11:41:18.360Z,995.13
2017-06-26T11:42:28.758Z,995.1
2017-06-26T11:43:39.118Z,995.1
2017-06-26T11:44:49.166Z,995.11
2017-06-26T11:45:59.512Z,995.11
2017-06-26T11:47:09.890Z,995.12
2017-06-26T11:48:20.234Z,995.11
2017-06-26T11:49:30.584Z,995.11
2017-06-26T11:50:40.348Z,995
2017-06-26T11:51:50.396Z,995.07
2017-06-26T11:53:00.759Z,995.02
2017-06-26T11:54:11.166Z,994.97
2017-06-26T11:55:21.213Z,994.93
2017-06-26T11:56:31.252Z,995.01
2017-06-26T11:57:41.297Z,994.97
2017-06-26T11:58:50.713Z,994.93
2017-06-26T12:00:01.118Z,994.97
2017-06-26T12:01:11.161Z,995.03
2017-06-26T12:02:21.528Z,995.05
2017-06-26T12:03:31.906Z,994.99
2017-06-26T12:04:42.255Z,995.05
2017-06-26T12:05:52.345Z,995.07
2017-06-26T12:07:02.427Z,995.06
2017-06-26T12:08:12.785Z,994.93
2017-06-26T12:09:23.138Z,994.92
2017-06-26T12:10:33.509Z,994.9
2017-06-26T12:11:43.592Z,994.91
2017-06-26T12:12:53.946Z,994.91
2017-06-26T12:14:04.002Z,994.96
2017-06-26T12:15:14.042Z,994.97
2017-06-26T12:16:24.399Z,995.02
2017-06-26T12:17:34.489Z,994.96
2017-06-26T12:18:44.527Z,994.89
2017-06-26T12:19:54.871Z,994.82
2017-06-26T12:21:05.262Z,994.9
2017-06-26T12:22:15.307Z,994.87
2017-06-26T12:23:25.094Z,994.82
2017-06-26T12:24:35.173Z,994.82
2017-06-26T12:25:45.554Z,994.83
2017-06-26T12:26:55.602Z,994.83
2017-06-26T12:28:05.958Z,994.87
2017-06-26T12:29:16.367Z,994.84
2017-06-26T12:30:26.726Z,994.84
2017-06-26T12:31:37.080Z,994.8
2017-06-26T12:32:47.469Z,994.84
2017-06-26T12:33:57.547Z,994.72
2017-06-26T12:35:07.912Z,994.78
2017-06-26T12:36:18.266Z,994.78
2017-06-26T12:37:28.636Z,994.76
2017-06-26T12:38:38.982Z,994.74
2017-06-26T12:39:49.332Z,994.77
2017-06-26T12:40:59.671Z,994.72
2017-06-26T12:42:10.040Z,994.72
2017-06-26T12:43:20.425Z,994.7
2017-06-26T12:44:30.781Z,994.72
2017-06-26T12:45:40.821Z,994.78
2017-06-26T12:46:51.175Z,994.69
2017-06-26T12:48:01.537Z,994.63
2017-06-26T12:49:11.324Z,994.63
2017-06-26T12:50:21.692Z,994.59
2017-06-26T12:51:32.044Z,994.6
2017-06-26T12:52:42.081Z,994.63
2017-06-26T12:53:52.441Z,994.64
2017-06-26T12:55:02.845Z,994.7
2017-06-26T12:56:13.199Z,994.62
2017-06-26T12:57:22.933Z,994.71
2017-06-26T12:58:33.298Z,994.67
2017-06-26T12:59:43.045Z,994.66
2017-06-26T13:00:53.458Z,994.67
2017-06-26T13:02:03.815Z,994.61
2017-06-26T13:03:14.182Z,994.48
2017-06-26T13:04:24.547Z,994.62
2017-06-26T13:05:34.893Z,994.59
2017-06-26T13:06:44.987Z,994.56
2017-06-26T13:07:54.721Z,994.57
2017-06-26T13:09:05.074Z,994.5
2017-06-26T13:10:15.444Z,994.48
2017-06-26T13:11:25.481Z,994.54
2017-06-26T13:12:35.812Z,994.58
2017-06-26T13:13:45.557Z,994.52
2017-06-26T13:14:55.912Z,994.52
2017-06-26T13:16:06.261Z,994.49
2017-06-26T13:17:16.327Z,994.48
2017-06-26T13:18:26.743Z,994.48
2017-06-26T13:19:36.806Z,994.47
2017-06-26T13:20:47.160Z,994.48
2017-06-26T13:21:57.538Z,994.51
2017-06-26T13:23:07.577Z,994.49
2017-06-26T13:24:17.995Z,994.47
2017-06-26T13:25:28.372Z,994.53
2017-06-26T13:26:38.731Z,994.48
2017-06-26T13:27:49.087Z,994.42
2017-06-26T13:28:59.442Z,994.51
2017-06-26T13:30:09.532Z,994.46
2017-06-26T13:31:19.890Z,994.5
2017-06-26T13:32:30.242Z,994.49
2017-06-26T13:33:39.968Z,994.51
2017-06-26T13:34:50.002Z,994.47
2017-06-26T13:36:00.399Z,994.44
2017-06-26T13:37:10.453Z,994.39
2017-06-26T13:38:20.796Z,994.41
2017-06-26T13:39:30.840Z,994.46
2017-06-26T13:40:41.212Z,994.41
2017-06-26T13:41:51.296Z,994.37
2017-06-26T13:43:01.655Z,994.35
2017-06-26T13:44:11.376Z,994.38
2017-06-26T13:45:21.428Z,994.35
2017-06-26T13:46:31.791Z,994.38
2017-06-26T13:47:42.211Z,994.34
2017-06-26T13:48:52.254Z,994.3
2017-06-26T13:50:02.605Z,994.31
2017-06-26T13:51:12.963Z,994.3
2017-06-26T13:52:23.020Z,994.26
2017-06-26T13:53:33.440Z,994.29
2017-06-26T13:54:43.165Z,994.25
2017-06-26T13:55:53.210Z,994.25
2017-06-26T13:57:03.254Z,994.28
2017-06-26T13:58:13.314Z,994.24
2017-06-26T13:59:23.741Z,994.23
2017-06-26T14:00:34.108Z,994.21
2017-06-26T14:01:44.143Z,994.16
2017-06-26T14:02:54.507Z,994.12
2017-06-26T14:04:04.850Z,994.1
2017-06-26T14:05:15.266Z,994.12
2017-06-26T14:06:25.625Z,994.09
2017-06-26T14:07:35.985Z,994.1
2017-06-26T14:08:46.018Z,994.1
2017-06-26T14:09:56.403Z,994.06
2017-06-26T14:11:06.187Z,994.12
2017-06-26T14:12:16.553Z,994.12
2017-06-26T14:13:26.921Z,994.18
2017-06-26T14:14:37.273Z,994.17
2017-06-26T14:15:47.645Z,994.16
2017-06-26T14:16:57.689Z,994.11
2017-06-26T14:18:07.729Z,994.15
2017-06-26T14:19:18.082Z,994.1
2017-06-26T14:20:28.419Z,994.08
2017-06-26T14:21:38.775Z,994.1
2017-06-26T14:22:48.511Z,994.03
2017-06-26T14:23:58.854Z,994.08
2017-06-26T14:25:08.905Z,994.06
2017-06-26T14:26:18.958Z,994.05
2017-06-26T14:27:29.308Z,994.03
2017-06-26T14:28:39.404Z,994.02
2017-06-26T14:29:49.774Z,994.02
2017-06-26T14:30:59.833Z,994.04
2017-06-26T14:32:09.912Z,993.98
2017-06-26T14:33:20.290Z,993.96
2017-06-26T14:34:30.738Z,993.9
2017-06-26T14:35:40.800Z,993.92
2017-06-26T14:36:51.163Z,993.85
2017-06-26T14:38:01.538Z,993.81
2017-06-26T14:39:11.919Z,993.85
2017-06-26T14:40:22.296Z,993.86
2017-06-26T14:41:32.679Z,993.86
2017-06-26T14:42:43.079Z,993.79
2017-06-26T14:43:53.476Z,993.75
2017-06-26T14:45:03.864Z,993.83
2017-06-26T14:46:13.664Z,993.76
2017-06-26T14:47:24.023Z,993.75
2017-06-26T14:48:34.427Z,993.74
2017-06-26T14:49:45.309Z,993.72
2017-06-26T14:50:55.458Z,993.76
2017-06-26T14:52:06.176Z,993.75
2017-06-26T14:53:16.836Z,993.75
2017-06-26T14:54:27.514Z,993.78
2017-06-26T14:55:37.929Z,993.76
2017-06-26T14:56:47.980Z,993.77
2017-06-26T14:57:58.481Z,993.78
2017-06-26T14:59:09.487Z,993.82
2017-06-26T15:00:20.165Z,993.83
2017-06-26T15:01:31.076Z,993.88
2017-06-26T15:02:41.501Z,993.8
2017-06-26T15:03:52.476Z,993.79
2017-06-26T15:05:02.897Z,993.75
2017-06-26T15:06:13.794Z,993.74
2017-06-26T15:07:24.423Z,993.69
2017-06-26T15:08:34.765Z,993.66
2017-06-26T15:09:44.921Z,993.66
2017-06-26T15:10:55.546Z,993.64